»·PEaware :: N8350R KSBA-KSMX

N8350R :: KSBA-KSMX

FLIGHT INFORMATION

Flight Status: Arrived
Operator: Privately registered:
United States
More flights under this callsign
Pilot: David L. (16466)
Aircraft: CESSNA 172 SKYHAWK
(C172)
More flights by this aircraft type
Origin: KSBA Santa Barbara Mun
United States
Destination: KSMX Santa Maria Pub/Capt Hancock
United States
More flights between these airports :: More routes between these airports
Route: +KWANG5 RZS
File this flight plan on PilotEdge
Remarks:
Altitude:
(Current/Filed)
6,000ft
Speed:
(Current/Filed)
110kts
Departed: 30-Sep-17 07:37 AM
Arrived: 30-Sep-17 08:29 AM
Distance/Time
Traveled:
41nm/0:52
Distance/Time
To Go:
Arrived

Flight Plot

Page will automatically refresh every two minutes.

Flight plan parsing failed; only flown route is shown


Map Options




Map Legend


Flown Route
Filed Route
Departure Airport
Arrival Airport
Navaid (VOR, NDB)
Fix

Horizontal Profiles

Position Reports

Time Latitude Longitude Heading Altitude Ground
Speed
30-Sep-17 07:25 34.431454 -119.832611 357 13ft 0kts
30-Sep-17 07:26 34.431454 -119.832611 357 13ft 0kts
30-Sep-17 07:27 34.431454 -119.832611 357 13ft 0kts
30-Sep-17 07:28 34.431454 -119.832611 357 13ft 0kts
30-Sep-17 07:29 34.431454 -119.832611 357 13ft 0kts
30-Sep-17 07:30 34.431454 -119.832611 357 13ft 0kts
30-Sep-17 07:31 34.431454 -119.832611 357 13ft 0kts
30-Sep-17 07:32 34.431454 -119.832611 357 13ft 0kts
30-Sep-17 07:33 34.431454 -119.832611 357 13ft 0kts
30-Sep-17 07:34 34.431454 -119.832611 357 13ft 0kts
30-Sep-17 07:35 34.431454 -119.832611 357 13ft 0kts
30-Sep-17 07:36 34.431454 -119.832611 357 13ft 0kts
30-Sep-17 07:37 34.432316 -119.833036 331 13ft 12kts
30-Sep-17 07:38 34.431522 -119.837347 249 13ft 17kts
30-Sep-17 07:39 34.430675 -119.839782 241 13ft 0kts
30-Sep-17 07:40 34.430675 -119.839783 241 13ft 0kts
30-Sep-17 07:41 34.425669 -119.838789 165 35ft 75kts
30-Sep-17 07:42 34.406552 -119.826405 101 844ft 87kts
30-Sep-17 07:43 34.408762 -119.797966 88 1713ft 85kts
30-Sep-17 07:44 34.402539 -119.769927 111 2467ft 89kts
30-Sep-17 07:45 34.394129 -119.741365 108 3180ft 90kts
30-Sep-17 07:46 34.381187 -119.715380 121 3863ft 90kts
30-Sep-17 07:47 34.367688 -119.689485 118 4536ft 90kts
30-Sep-17 07:48 34.355950 -119.662304 112 5163ft 93kts
30-Sep-17 07:49 34.345541 -119.632434 111 5715ft 100kts
30-Sep-17 07:50 34.334510 -119.599003 113 6031ft 119kts
30-Sep-17 07:51 34.319916 -119.561233 118 5999ft 124kts
30-Sep-17 07:52 34.303827 -119.524628 120 6000ft 122kts
30-Sep-17 07:53 34.312085 -119.507518 311 6030ft 88kts
30-Sep-17 07:54 34.328561 -119.530894 301 5999ft 91kts
30-Sep-17 07:55 34.343136 -119.556101 303 5999ft 91kts
30-Sep-17 07:56 34.360061 -119.579348 310 6000ft 92kts
30-Sep-17 07:57 34.378303 -119.600896 310 6000ft 92kts
30-Sep-17 07:58 34.396194 -119.623389 308 6000ft 92kts
30-Sep-17 07:59 34.413462 -119.646355 308 6000ft 92kts
30-Sep-17 08:00 34.430913 -119.669054 309 6000ft 92kts
30-Sep-17 08:01 34.448491 -119.691754 309 6000ft 92kts
30-Sep-17 08:02 34.465962 -119.714420 308 5999ft 92kts
30-Sep-17 08:03 34.483425 -119.737103 308 6000ft 92kts
30-Sep-17 08:04 34.500958 -119.759871 308 6000ft 92kts
30-Sep-17 08:05 34.517956 -119.782976 304 6001ft 91kts
30-Sep-17 08:06 34.530635 -119.808896 277 6013ft 89kts
30-Sep-17 08:07 34.541819 -119.836078 298 6000ft 91kts
30-Sep-17 08:08 34.554852 -119.862437 298 5999ft 91kts
30-Sep-17 08:09 34.567903 -119.888785 298 6000ft 91kts
30-Sep-17 08:10 34.580432 -119.914083 298 6000ft 91kts
30-Sep-17 08:11 34.594053 -119.941598 298 6000ft 91kts
30-Sep-17 08:12 34.607136 -119.968035 298 6000ft 91kts
30-Sep-17 08:13 34.620182 -119.994404 298 6000ft 91kts
30-Sep-17 08:14 34.629411 -120.013191 298 6000ft 91kts
30-Sep-17 08:15 34.637246 -120.029106 298 6000ft 91kts
30-Sep-17 08:16 34.651044 -120.057697 299 5527ft 104kts
30-Sep-17 08:17 34.665865 -120.088622 302 4925ft 107kts
30-Sep-17 08:18 34.681541 -120.119556 303 4590ft 103kts
30-Sep-17 08:19 34.696619 -120.148874 303 4601ft 102kts
30-Sep-17 08:20 34.711560 -120.178674 302 4595ft 100kts
30-Sep-17 08:21 34.724199 -120.204732 302 4594ft 84kts
30-Sep-17 08:22 34.736775 -120.230655 302 4603ft 91kts
30-Sep-17 08:23 34.749837 -120.257257 302 4594ft 91kts
30-Sep-17 08:24 34.764932 -120.281250 314 4426ft 91kts
30-Sep-17 08:25 34.779359 -120.307642 303 3755ft 93kts
30-Sep-17 08:26 34.795858 -120.329914 317 3114ft 79kts
30-Sep-17 08:27 34.810606 -120.347989 311 3034ft 75kts
30-Sep-17 08:28 34.826058 -120.365742 317 2953ft 77kts
30-Sep-17 08:29 34.841446 -120.385447 313 2418ft 81kts
30-Sep-17 08:30 34.858037 -120.404738 315 1765ft 81kts
30-Sep-17 08:31 34.872974 -120.422625 316 1541ft 73kts
30-Sep-17 08:32 34.886619 -120.438543 316 802ft 65kts
30-Sep-17 08:33 34.896007 -120.449658 316 264ft 15kts
30-Sep-17 08:34 34.897074 -120.449991 359 264ft 0kts
30-Sep-17 08:35 34.897673 -120.450000 0 264ft 5kts
30-Sep-17 08:36 34.897873 -120.447835 44 264ft 8kts
30-Sep-17 08:37 34.898171 -120.447476 44 264ft 0kts

Navigation Log

Ident Type
Flight plan parsing failed, navigation log unavailable